createdAt,value
2018-05-24T00:02:38.530Z,2.27
2018-05-24T00:05:40.968Z,2.50
2018-05-24T00:08:43.418Z,2.73
2018-05-24T00:11:45.906Z,2.50
2018-05-24T00:14:48.365Z,2.20
2018-05-24T00:17:50.816Z,2.23
2018-05-24T00:20:54.050Z,2.47
2018-05-24T00:23:56.503Z,2.53
2018-05-24T00:26:58.969Z,2.23
2018-05-24T00:30:01.435Z,2.50
2018-05-24T00:33:03.883Z,2.50
2018-05-24T00:36:06.330Z,2.53
2018-05-24T00:39:08.790Z,2.57
2018-05-24T00:42:11.249Z,2.33
2018-05-24T00:45:14.476Z,2.60
2018-05-24T00:48:16.944Z,2.43
2018-05-24T00:51:19.386Z,2.83
2018-05-24T00:54:22.601Z,2.43
2018-05-24T00:57:25.062Z,2.60
2018-05-24T01:00:28.309Z,2.80
2018-05-24T01:03:30.769Z,2.87
2018-05-24T01:06:33.217Z,2.90
2018-05-24T01:09:35.657Z,3.10
2018-05-24T01:12:38.117Z,3.40
2018-05-24T01:15:40.611Z,3.40
2018-05-24T01:18:43.027Z,3.73
2018-05-24T01:24:54.493Z,3.13
2018-05-24T01:27:56.951Z,3.47
2018-05-24T01:30:59.406Z,3.20
2018-05-24T01:34:01.859Z,3.53
2018-05-24T01:37:16.221Z,3.40
2018-05-24T01:40:19.420Z,3.63
2018-05-24T01:43:21.881Z,3.50
2018-05-24T01:46:25.106Z,4.23
2018-05-24T01:49:27.549Z,3.47
2018-05-24T01:52:30.773Z,3.90
2018-05-24T01:55:33.236Z,3.77
2018-05-24T01:58:35.707Z,3.90
2018-05-24T02:01:38.161Z,3.97
2018-05-24T02:04:41.386Z,4.07
2018-05-24T02:07:43.862Z,3.37
2018-05-24T02:10:46.317Z,3.80
2018-05-24T02:13:49.555Z,3.97
2018-05-24T02:16:52.014Z,4.03
2018-05-24T02:19:54.463Z,4.17
2018-05-24T02:22:57.681Z,4.00
2018-05-24T02:26:00.162Z,4.20
2018-05-24T02:29:02.657Z,4.23
2018-05-24T02:32:05.849Z,4.23
2018-05-24T02:35:08.309Z,4.40
2018-05-24T02:38:10.776Z,4.60
2018-05-24T02:41:13.236Z,4.60
2018-05-24T02:44:16.453Z,4.63
2018-05-24T02:47:19.439Z,4.37
2018-05-24T02:50:21.882Z,4.77
2018-05-24T02:53:24.331Z,4.10
2018-05-24T02:56:26.797Z,4.80
2018-05-24T02:59:29.254Z,4.60
2018-05-24T03:02:31.726Z,4.20
2018-05-24T03:05:34.931Z,4.40
2018-05-24T03:08:37.406Z,4.30
2018-05-24T03:11:39.882Z,4.73
2018-05-24T03:14:42.322Z,4.97
2018-05-24T03:17:44.778Z,4.90
2018-05-24T03:20:47.223Z,5.40
2018-05-24T03:23:49.681Z,5.00
2018-05-24T03:26:52.142Z,5.63
2018-05-24T03:29:55.349Z,4.90
2018-05-24T03:32:57.802Z,5.00
2018-05-24T03:36:01.017Z,5.10
2018-05-24T03:39:03.465Z,5.37
2018-05-24T03:42:05.934Z,5.20
2018-05-24T03:45:08.386Z,5.27
2018-05-24T03:48:10.862Z,5.43
2018-05-24T03:51:13.325Z,6.00
2018-05-24T03:54:15.789Z,6.13
2018-05-24T03:57:18.253Z,5.90
2018-05-24T04:00:33.390Z,5.63
2018-05-24T04:03:47.645Z,6.07
2018-05-24T04:06:50.098Z,6.40
2018-05-24T04:09:52.549Z,6.67
2018-05-24T04:12:55.023Z,5.87
2018-05-24T04:15:57.462Z,6.07
2018-05-24T04:19:00.685Z,6.43
2018-05-24T04:22:03.138Z,6.10
2018-05-24T04:25:06.355Z,5.87
2018-05-24T04:28:08.813Z,5.70
2018-05-24T04:31:12.026Z,5.87
2018-05-24T04:34:14.489Z,5.73
2018-05-24T04:37:17.718Z,5.80
2018-05-24T04:40:20.174Z,5.77
2018-05-24T04:43:22.654Z,5.50
2018-05-24T04:46:25.160Z,5.73
2018-05-24T04:49:27.613Z,5.90
2018-05-24T04:52:30.118Z,5.97
2018-05-24T04:55:33.317Z,6.37
2018-05-24T04:58:35.785Z,6.53
2018-05-24T05:01:38.248Z,6.30
2018-05-24T05:08:26.419Z,6.03
2018-05-24T05:11:28.873Z,6.17
2018-05-24T05:14:31.355Z,6.60
2018-05-24T05:17:34.178Z,6.47
2018-05-24T05:20:36.669Z,6.73
2018-05-24T05:23:39.131Z,6.50
2018-05-24T05:26:41.596Z,5.97
2018-05-24T05:29:44.055Z,6.60
2018-05-24T05:32:46.534Z,6.47
2018-05-24T05:35:48.973Z,6.70
2018-05-24T05:38:52.213Z,6.87
2018-05-24T05:41:54.649Z,6.97
2018-05-24T05:44:57.890Z,6.20
2018-05-24T05:48:00.364Z,6.30
2018-05-24T05:51:02.823Z,6.43
2018-05-24T05:54:05.278Z,7.30
2018-05-24T05:57:08.487Z,6.70
2018-05-24T06:00:10.998Z,7.23
2018-05-24T06:03:13.481Z,6.73
2018-05-24T06:06:15.987Z,6.50
2018-05-24T06:09:18.450Z,6.87
2018-05-24T06:12:20.899Z,6.53
2018-05-24T06:15:23.361Z,6.77
2018-05-24T06:18:25.808Z,7.10
2018-05-24T06:21:29.060Z,7.20
2018-05-24T06:24:31.497Z,7.00
2018-05-24T06:27:33.954Z,7.20
2018-05-24T06:30:37.185Z,6.80
2018-05-24T06:33:39.645Z,7.33
2018-05-24T06:36:42.089Z,6.93
2018-05-24T06:39:44.562Z,7.57
2018-05-24T06:42:47.011Z,7.10
2018-05-24T06:45:49.468Z,7.37
2018-05-24T06:48:51.930Z,7.50
2018-05-24T06:51:54.390Z,8.40
2018-05-24T06:54:57.621Z,7.27
2018-05-24T06:58:00.071Z,7.43
2018-05-24T07:01:02.528Z,7.47
2018-05-24T07:04:05.762Z,7.43
2018-05-24T07:07:08.225Z,7.10
2018-05-24T07:10:10.686Z,6.83
2018-05-24T07:13:13.922Z,7.33
2018-05-24T07:16:16.382Z,6.70
2018-05-24T07:19:18.850Z,7.03
2018-05-24T07:22:21.314Z,6.83
2018-05-24T07:25:24.533Z,7.00
2018-05-24T07:28:26.998Z,6.97
2018-05-24T07:31:29.477Z,7.20
2018-05-24T07:34:32.707Z,7.20
2018-05-24T07:37:35.161Z,7.10
2018-05-24T07:40:37.630Z,7.50
2018-05-24T07:43:40.075Z,7.03
2018-05-24T07:46:43.301Z,7.20
2018-05-24T07:49:45.784Z,6.97
2018-05-24T07:52:48.238Z,7.10
2018-05-24T07:55:50.827Z,8.37
2018-05-24T07:58:54.038Z,7.73
2018-05-24T08:01:56.493Z,7.47
2018-05-24T08:04:58.948Z,7.10
2018-05-24T08:08:02.181Z,7.80
2018-05-24T08:11:04.634Z,7.97
2018-05-24T08:14:07.842Z,7.60
2018-05-24T08:17:10.305Z,8.03
2018-05-24T08:20:13.537Z,7.47
2018-05-24T08:23:16.006Z,7.83
2018-05-24T08:26:18.450Z,7.93
2018-05-24T08:29:20.889Z,8.20
2018-05-24T08:32:23.359Z,9.00
2018-05-24T08:35:25.821Z,8.20
2018-05-24T08:38:28.284Z,9.40
2018-05-24T08:41:30.736Z,8.57
2018-05-24T08:44:33.198Z,8.50
2018-05-24T08:47:36.422Z,8.60
2018-05-24T08:50:38.886Z,9.37
2018-05-24T08:53:41.338Z,8.50
2018-05-24T08:56:43.807Z,9.10
2018-05-24T08:59:46.264Z,8.97
2018-05-24T09:02:48.720Z,8.90
2018-05-24T09:05:51.177Z,8.63
2018-05-24T09:08:53.647Z,9.30
2018-05-24T09:11:57.407Z,9.33
2018-05-24T09:14:59.870Z,9.63
2018-05-24T09:18:02.329Z,10.13
2018-05-24T09:21:04.810Z,9.43
2018-05-24T09:24:07.275Z,10.00
2018-05-24T09:27:09.726Z,9.90
2018-05-24T09:30:12.193Z,10.73
2018-05-24T09:33:15.418Z,11.80
2018-05-24T09:36:17.970Z,12.63
2018-05-24T09:39:20.330Z,13.50
2018-05-24T09:42:26.717Z,14.03
2018-05-24T09:45:29.182Z,13.57
2018-05-24T09:48:31.652Z,15.17
2018-05-24T09:51:34.105Z,15.77
2018-05-24T09:54:36.566Z,15.53
2018-05-24T10:00:48.006Z,16.10
2018-05-24T10:03:50.470Z,16.70
2018-05-24T10:06:52.946Z,18.50
2018-05-24T10:09:55.407Z,18.80
2018-05-24T10:12:57.873Z,20.13
2018-05-24T10:16:00.348Z,20.30
2018-05-24T10:19:02.797Z,20.47
2018-05-24T10:22:06.034Z,20.57
2018-05-24T10:25:08.483Z,21.10
2018-05-24T10:28:10.963Z,20.93
2018-05-24T10:31:13.437Z,21.10
2018-05-24T10:34:15.880Z,21.27
2018-05-24T10:37:26.225Z,21.87
2018-05-24T10:40:28.792Z,22.17
2018-05-24T10:43:31.442Z,22.53
2018-05-24T10:46:34.106Z,24.33
2018-05-24T10:49:36.671Z,24.30
2018-05-24T10:52:42.733Z,24.97
2018-05-24T10:55:46.001Z,22.13
2018-05-24T10:58:48.476Z,23.70
2018-05-24T11:01:50.933Z,21.47
2018-05-24T11:04:53.640Z,23.37
2018-05-24T11:07:56.097Z,24.97
2018-05-24T11:10:58.553Z,24.33
2018-05-24T11:14:01.026Z,24.13
2018-05-24T11:17:03.481Z,23.20
2018-05-24T11:20:06.756Z,23.60
2018-05-24T11:23:09.275Z,24.33
2018-05-24T11:26:11.745Z,23.97
2018-05-24T11:29:14.218Z,24.87
2018-05-24T11:32:16.686Z,24.33
2018-05-24T11:35:20.201Z,23.20
2018-05-24T11:38:22.827Z,22.97
2018-05-24T11:41:25.352Z,25.20
2018-05-24T11:44:28.750Z,22.97
2018-05-24T11:47:31.543Z,23.27
2018-05-24T11:50:34.025Z,21.60
2018-05-24T11:53:36.509Z,21.23
2018-05-24T11:56:38.974Z,21.13
2018-05-24T11:59:41.478Z,20.77
2018-05-24T12:02:43.941Z,20.33
2018-05-24T12:05:46.422Z,19.67
2018-05-24T12:08:48.895Z,19.77
2018-05-24T12:11:51.386Z,17.97
2018-05-24T12:14:53.842Z,18.30
2018-05-24T12:17:56.323Z,17.37
2018-05-24T12:20:58.781Z,18.10
2018-05-24T12:24:01.250Z,18.23
2018-05-24T12:27:04.482Z,17.67
2018-05-24T12:30:06.937Z,18.33
2018-05-24T12:33:09.401Z,17.97
2018-05-24T12:36:11.850Z,18.50
2018-05-24T12:39:15.822Z,18.77
2018-05-24T12:42:18.285Z,18.70
2018-05-24T12:45:20.734Z,19.17
2018-05-24T12:48:23.981Z,18.63
2018-05-24T12:51:26.422Z,19.60
2018-05-24T12:54:28.897Z,19.00
2018-05-24T12:57:31.371Z,19.77
2018-05-24T13:00:34.590Z,19.53
2018-05-24T13:03:37.059Z,19.17
2018-05-24T13:06:39.518Z,19.57
2018-05-24T13:09:42.741Z,18.70
2018-05-24T13:12:45.209Z,19.97
2018-05-24T13:15:47.667Z,20.10
2018-05-24T13:18:50.126Z,18.97
2018-05-24T13:21:53.354Z,18.83
2018-05-24T13:24:55.842Z,18.80
2018-05-24T13:27:58.305Z,18.80
2018-05-24T13:31:00.769Z,18.67
2018-05-24T13:34:03.237Z,18.20
2018-05-24T13:37:05.700Z,20.57
2018-05-24T13:40:08.178Z,18.60
2018-05-24T13:43:10.653Z,19.50
2018-05-24T13:46:13.106Z,20.57
2018-05-24T13:49:15.566Z,19.03
2018-05-24T13:52:18.026Z,20.50
2018-05-24T13:55:20.505Z,20.80
2018-05-24T13:58:22.974Z,19.90
2018-05-24T14:01:25.428Z,21.63
2018-05-24T14:04:28.670Z,23.20
2018-05-24T14:07:31.125Z,22.03
2018-05-24T14:10:33.599Z,22.43
2018-05-24T14:13:36.063Z,23.70
2018-05-24T14:16:38.513Z,23.50
2018-05-24T14:19:40.980Z,23.37
2018-05-24T14:22:43.440Z,24.17
2018-05-24T14:25:45.915Z,24.33
2018-05-24T14:28:48.389Z,24.63
2018-05-24T14:31:50.865Z,24.03
2018-05-24T14:34:53.366Z,24.47
2018-05-24T14:37:55.835Z,24.67
2018-05-24T14:40:58.296Z,24.53
2018-05-24T14:44:00.761Z,26.20
2018-05-24T14:47:03.228Z,25.80
2018-05-24T14:50:05.712Z,26.90
2018-05-24T14:53:08.162Z,26.30
2018-05-24T14:56:10.629Z,25.93
2018-05-24T14:59:13.861Z,24.43
2018-05-24T15:02:16.319Z,25.20
2018-05-24T15:05:18.795Z,23.47
2018-05-24T15:08:21.284Z,23.77
2018-05-24T15:11:23.742Z,23.10
2018-05-24T15:14:26.205Z,22.50
2018-05-24T15:17:29.422Z,21.10
2018-05-24T15:20:31.885Z,20.23
2018-05-24T15:23:34.354Z,19.97
2018-05-24T15:26:37.570Z,19.67
2018-05-24T15:29:40.040Z,19.63
2018-05-24T15:32:42.522Z,18.43
2018-05-24T15:35:45.744Z,17.00
2018-05-24T15:38:48.197Z,16.60
2018-05-24T15:41:50.662Z,15.27
2018-05-24T15:44:53.126Z,15.30
2018-05-24T15:47:55.577Z,15.13
2018-05-24T15:51:00.063Z,15.13
2018-05-24T15:54:02.541Z,15.47
2018-05-24T15:57:05.001Z,15.50
2018-05-24T16:00:07.549Z,16.47
2018-05-24T16:03:11.073Z,15.13
2018-05-24T16:06:13.734Z,15.77
2018-05-24T16:09:17.090Z,14.00
2018-05-24T16:12:29.701Z,14.90
2018-05-24T16:15:32.384Z,14.00
2018-05-24T16:18:34.850Z,14.30
2018-05-24T16:21:37.313Z,13.77
2018-05-24T16:24:39.793Z,13.57
2018-05-24T16:27:42.251Z,12.03
2018-05-24T16:30:45.485Z,12.57
2018-05-24T16:33:47.939Z,12.57
2018-05-24T16:36:50.410Z,11.83
2018-05-24T16:39:52.874Z,12.50
2018-05-24T16:42:56.094Z,12.13
2018-05-24T16:45:58.574Z,12.37
2018-05-24T16:49:01.039Z,12.27
2018-05-24T16:52:03.526Z,12.63
2018-05-24T16:55:06.003Z,11.77
2018-05-24T16:58:08.471Z,12.20
2018-05-24T17:01:10.924Z,12.80
2018-05-24T17:04:13.386Z,12.80
2018-05-24T17:07:15.839Z,12.93
2018-05-24T17:10:18.302Z,13.23
2018-05-24T17:13:21.522Z,13.33
2018-05-24T17:19:57.540Z,12.43
2018-05-24T17:23:00.006Z,12.73
2018-05-24T17:26:02.457Z,12.33
2018-05-24T17:29:04.914Z,12.47
2018-05-24T17:32:07.454Z,12.97
2018-05-24T17:35:09.921Z,12.33
2018-05-24T17:38:16.707Z,12.07
2018-05-24T17:41:19.929Z,12.17
2018-05-24T17:44:22.383Z,12.00
2018-05-24T17:47:24.841Z,13.20
2018-05-24T17:50:28.061Z,13.40
2018-05-24T17:53:30.537Z,13.80
2018-05-24T17:56:33.742Z,12.77
2018-05-24T17:59:36.207Z,13.07
2018-05-24T18:02:38.672Z,14.80
2018-05-24T18:05:41.149Z,14.93
2018-05-24T18:08:43.610Z,14.80
2018-05-24T18:11:46.838Z,13.80
2018-05-24T18:14:49.349Z,16.27
2018-05-24T18:17:51.770Z,17.43
2018-05-24T18:20:54.994Z,13.33
2018-05-24T18:23:57.458Z,13.23
2018-05-24T18:26:59.940Z,15.97
2018-05-24T18:30:11.051Z,15.27
2018-05-24T18:33:13.538Z,15.90
2018-05-24T18:36:16.006Z,15.77
2018-05-24T18:39:18.459Z,16.77
2018-05-24T18:42:20.930Z,14.60
2018-05-24T18:45:29.301Z,13.87
2018-05-24T18:48:31.765Z,15.47
2018-05-24T18:51:34.233Z,14.67
2018-05-24T18:54:36.685Z,15.13
2018-05-24T18:57:39.174Z,15.10
2018-05-24T19:00:41.656Z,15.57
2018-05-24T19:03:44.112Z,15.57
2018-05-24T19:06:46.594Z,15.90
2018-05-24T19:09:49.053Z,14.27
2018-05-24T19:12:51.533Z,15.83
2018-05-24T19:15:54.014Z,16.23
2018-05-24T19:18:56.470Z,14.57
2018-05-24T19:21:59.100Z,15.10
2018-05-24T19:25:01.679Z,15.57
2018-05-24T19:28:04.335Z,16.23
2018-05-24T19:31:06.838Z,15.50
2018-05-24T19:34:09.298Z,15.53
2018-05-24T19:37:11.778Z,16.23
2018-05-24T19:40:15.030Z,15.57
2018-05-24T19:43:17.503Z,15.93
2018-05-24T19:46:20.745Z,16.67
2018-05-24T19:49:23.202Z,15.37
2018-05-24T19:52:25.661Z,17.90
2018-05-24T19:55:28.118Z,18.30
2018-05-24T19:58:31.346Z,17.50
2018-05-24T20:01:33.805Z,18.93
2018-05-24T20:04:37.042Z,19.30
2018-05-24T20:07:39.511Z,19.10
2018-05-24T20:10:41.963Z,19.87
2018-05-24T20:13:44.452Z,19.70
2018-05-24T20:16:46.925Z,20.10
2018-05-24T20:19:49.361Z,20.47
2018-05-24T20:22:51.855Z,20.57
2018-05-24T20:25:54.293Z,20.23
2018-05-24T20:28:56.761Z,20.27
2018-05-24T20:31:59.221Z,20.17
2018-05-24T20:35:01.682Z,20.40
2018-05-24T20:38:04.162Z,20.47
2018-05-24T20:41:06.633Z,18.53
2018-05-24T20:44:09.099Z,19.33
2018-05-24T20:47:11.561Z,18.87
2018-05-24T20:50:14.810Z,20.57
2018-05-24T20:53:17.265Z,20.33
2018-05-24T20:56:19.765Z,20.30
2018-05-24T20:59:22.958Z,19.00
2018-05-24T21:06:00.149Z,21.10
2018-05-24T21:09:02.622Z,21.97
2018-05-24T21:12:05.105Z,21.13
2018-05-24T21:15:07.566Z,22.17
2018-05-24T21:18:10.047Z,23.47
2018-05-24T21:21:13.290Z,21.23
2018-05-24T21:24:15.782Z,22.57
2018-05-24T21:27:18.249Z,22.83
2018-05-24T21:30:20.740Z,22.20
2018-05-24T21:33:23.202Z,22.17
2018-05-24T21:36:25.662Z,22.73
2018-05-24T21:39:28.130Z,21.83
2018-05-24T21:42:30.617Z,22.63
2018-05-24T21:45:33.108Z,23.03
2018-05-24T21:48:35.553Z,24.40
2018-05-24T21:51:38.010Z,23.50
2018-05-24T21:54:41.229Z,21.83
2018-05-24T21:57:43.689Z,21.93
2018-05-24T22:00:50.998Z,22.27
2018-05-24T22:03:53.457Z,25.37
2018-05-24T22:06:55.914Z,26.57
2018-05-24T22:09:59.159Z,26.30
2018-05-24T22:13:01.618Z,26.73
2018-05-24T22:16:04.082Z,26.80
2018-05-24T22:19:06.542Z,25.47
2018-05-24T22:22:09.761Z,25.13
2018-05-24T22:25:12.216Z,23.40
2018-05-24T22:28:14.681Z,22.77
2018-05-24T22:31:17.897Z,22.33
2018-05-24T22:34:20.372Z,22.30
2018-05-24T22:37:22.826Z,21.93
2018-05-24T22:40:26.057Z,23.03
2018-05-24T22:43:28.529Z,23.30
2018-05-24T22:46:30.978Z,24.43
2018-05-24T22:49:34.201Z,26.40
2018-05-24T22:52:36.653Z,25.03
2018-05-24T22:55:39.881Z,26.20
2018-05-24T22:58:42.340Z,28.10
2018-05-24T23:01:44.799Z,27.97
2018-05-24T23:04:48.035Z,29.13
2018-05-24T23:07:50.487Z,27.30
2018-05-24T23:10:52.950Z,27.27
2018-05-24T23:13:56.186Z,27.00
2018-05-24T23:16:58.631Z,25.90
2018-05-24T23:20:01.098Z,25.70
2018-05-24T23:23:04.338Z,26.60
2018-05-24T23:26:06.794Z,28.60
2018-05-24T23:29:09.263Z,31.10
2018-05-24T23:32:11.732Z,31.90
2018-05-24T23:35:14.209Z,32.80
2018-05-24T23:38:16.658Z,32.67
2018-05-24T23:41:19.899Z,33.73
2018-05-24T23:44:22.365Z,33.57
2018-05-24T23:47:24.819Z,34.60
2018-05-24T23:50:27.268Z,32.37
2018-05-24T23:53:29.738Z,32.70
2018-05-24T23:56:32.209Z,32.50
2018-05-24T23:59:34.690Z,33.00
